sensor_id;sensor_type;location;lat;lon;timestamp;P1;durP1;ratioP1;P2;durP2;ratioP2
49824;SDS011;35714;55.708;37.478;2023-04-07T00:00:19;1.85;;;0.70;;
49824;SDS011;35714;55.708;37.478;2023-04-07T00:02:45;3.45;;;0.63;;
49824;SDS011;35714;55.708;37.478;2023-04-07T00:05:11;3.45;;;1.17;;
49824;SDS011;35714;55.708;37.478;2023-04-07T00:07:37;2.42;;;0.63;;
49824;SDS011;35714;55.708;37.478;2023-04-07T00:10:02;3.55;;;1.02;;
49824;SDS011;35714;55.708;37.478;2023-04-07T00:12:28;2.53;;;0.88;;
49824;SDS011;35714;55.708;37.478;2023-04-07T00:14:54;5.53;;;1.02;;
49824;SDS011;35714;55.708;37.478;2023-04-07T00:17:20;2.92;;;1.13;;
49824;SDS011;35714;55.708;37.478;2023-04-07T00:19:45;4.15;;;1.02;;
49824;SDS011;35714;55.708;37.478;2023-04-07T00:22:11;5.00;;;1.25;;
49824;SDS011;35714;55.708;37.478;2023-04-07T00:24:37;8.75;;;1.20;;
49824;SDS011;35714;55.708;37.478;2023-04-07T00:27:02;5.13;;;1.13;;
49824;SDS011;35714;55.708;37.478;2023-04-07T00:29:28;4.07;;;0.80;;
49824;SDS011;35714;55.708;37.478;2023-04-07T00:31:53;4.72;;;0.98;;
49824;SDS011;35714;55.708;37.478;2023-04-07T00:34:20;4.32;;;0.80;;
49824;SDS011;35714;55.708;37.478;2023-04-07T00:36:45;2.80;;;1.10;;
49824;SDS011;35714;55.708;37.478;2023-04-07T00:39:19;3.35;;;0.85;;
49824;SDS011;35714;55.708;37.478;2023-04-07T00:41:46;4.32;;;1.00;;
49824;SDS011;35714;55.708;37.478;2023-04-07T00:44:12;5.75;;;1.02;;
49824;SDS011;35714;55.708;37.478;2023-04-07T00:46:38;2.35;;;0.70;;
49824;SDS011;35714;55.708;37.478;2023-04-07T00:49:04;2.20;;;0.70;;
49824;SDS011;35714;55.708;37.478;2023-04-07T00:51:31;2.85;;;0.90;;
49824;SDS011;35714;55.708;37.478;2023-04-07T00:53:56;4.72;;;1.58;;
49824;SDS011;35714;55.708;37.478;2023-04-07T00:56:23;3.92;;;1.17;;
49824;SDS011;35714;55.708;37.478;2023-04-07T00:58:48;3.30;;;0.93;;
49824;SDS011;35714;55.708;37.478;2023-04-07T01:06:39;3.20;;;1.13;;
49824;SDS011;35714;55.708;37.478;2023-04-07T01:09:19;4.15;;;0.80;;
49824;SDS011;35714;55.708;37.478;2023-04-07T01:14:36;3.08;;;0.80;;
49824;SDS011;35714;55.708;37.478;2023-04-07T01:17:28;3.17;;;1.10;;
49824;SDS011;35714;55.708;37.478;2023-04-07T01:19:57;2.45;;;0.70;;
49824;SDS011;35714;55.708;37.478;2023-04-07T01:22:28;7.05;;;0.90;;
49824;SDS011;35714;55.708;37.478;2023-04-07T01:25:05;3.28;;;0.80;;
49824;SDS011;35714;55.708;37.478;2023-04-07T01:30:11;3.53;;;1.17;;
49824;SDS011;35714;55.708;37.478;2023-04-07T01:32:40;3.00;;;0.90;;
49824;SDS011;35714;55.708;37.478;2023-04-07T01:35:11;3.45;;;0.90;;
49824;SDS011;35714;55.708;37.478;2023-04-07T01:37:38;3.83;;;0.80;;
49824;SDS011;35714;55.708;37.478;2023-04-07T01:40:05;2.22;;;0.70;;
49824;SDS011;35714;55.708;37.478;2023-04-07T01:42:32;5.15;;;0.80;;
49824;SDS011;35714;55.708;37.478;2023-04-07T01:44:58;2.22;;;0.65;;
49824;SDS011;35714;55.708;37.478;2023-04-07T01:47:26;2.88;;;0.85;;
49824;SDS011;35714;55.708;37.478;2023-04-07T01:49:56;3.78;;;0.90;;
49824;SDS011;35714;55.708;37.478;2023-04-07T01:52:23;3.10;;;0.75;;
49824;SDS011;35714;55.708;37.478;2023-04-07T01:54:52;3.33;;;0.77;;
49824;SDS011;35714;55.708;37.478;2023-04-07T01:57:19;3.30;;;0.63;;
49824;SDS011;35714;55.708;37.478;2023-04-07T01:59:47;2.53;;;0.82;;
49824;SDS011;35714;55.708;37.478;2023-04-07T02:02:14;3.22;;;0.65;;
49824;SDS011;35714;55.708;37.478;2023-04-07T02:04:44;5.35;;;1.20;;
49824;SDS011;35714;55.708;37.478;2023-04-07T02:07:26;4.10;;;0.75;;
49824;SDS011;35714;55.708;37.478;2023-04-07T02:09:55;2.38;;;0.90;;
49824;SDS011;35714;55.708;37.478;2023-04-07T02:12:23;3.22;;;0.90;;
49824;SDS011;35714;55.708;37.478;2023-04-07T02:15:02;3.30;;;1.08;;
49824;SDS011;35714;55.708;37.478;2023-04-07T02:17:30;3.15;;;0.93;;
49824;SDS011;35714;55.708;37.478;2023-04-07T02:19:59;4.07;;;0.77;;
49824;SDS011;35714;55.708;37.478;2023-04-07T02:22:25;1.80;;;0.63;;
49824;SDS011;35714;55.708;37.478;2023-04-07T02:24:53;2.63;;;0.93;;
49824;SDS011;35714;55.708;37.478;2023-04-07T02:27:24;3.08;;;1.05;;
49824;SDS011;35714;55.708;37.478;2023-04-07T02:29:51;2.58;;;0.80;;
49824;SDS011;35714;55.708;37.478;2023-04-07T02:32:17;4.07;;;0.82;;
49824;SDS011;35714;55.708;37.478;2023-04-07T02:34:43;3.40;;;0.95;;
49824;SDS011;35714;55.708;37.478;2023-04-07T02:37:08;2.97;;;0.90;;
49824;SDS011;35714;55.708;37.478;2023-04-07T02:39:34;2.50;;;0.73;;
49824;SDS011;35714;55.708;37.478;2023-04-07T02:42:00;4.68;;;1.20;;
49824;SDS011;35714;55.708;37.478;2023-04-07T02:44:28;2.30;;;0.88;;
49824;SDS011;35714;55.708;37.478;2023-04-07T02:46:53;2.78;;;0.85;;
49824;SDS011;35714;55.708;37.478;2023-04-07T02:49:19;3.67;;;0.80;;
49824;SDS011;35714;55.708;37.478;2023-04-07T02:51:44;3.45;;;0.93;;
49824;SDS011;35714;55.708;37.478;2023-04-07T02:54:11;3.70;;;0.75;;
49824;SDS011;35714;55.708;37.478;2023-04-07T02:56:36;4.75;;;1.25;;
49824;SDS011;35714;55.708;37.478;2023-04-07T02:59:02;3.30;;;0.82;;
49824;SDS011;35714;55.708;37.478;2023-04-07T03:01:30;4.43;;;0.85;;
49824;SDS011;35714;55.708;37.478;2023-04-07T03:03:59;2.72;;;0.93;;
49824;SDS011;35714;55.708;37.478;2023-04-07T03:06:25;2.83;;;0.80;;
49824;SDS011;35714;55.708;37.478;2023-04-07T03:09:17;2.08;;;0.77;;
49824;SDS011;35714;55.708;37.478;2023-04-07T03:11:43;3.85;;;1.13;;
49824;SDS011;35714;55.708;37.478;2023-04-07T03:14:08;3.20;;;0.90;;
49824;SDS011;35714;55.708;37.478;2023-04-07T03:16:41;4.10;;;0.88;;
49824;SDS011;35714;55.708;37.478;2023-04-07T03:19:10;3.17;;;0.75;;
49824;SDS011;35714;55.708;37.478;2023-04-07T03:21:40;1.73;;;0.70;;
49824;SDS011;35714;55.708;37.478;2023-04-07T03:24:07;5.28;;;0.95;;
49824;SDS011;35714;55.708;37.478;2023-04-07T03:26:33;4.63;;;0.98;;
49824;SDS011;35714;55.708;37.478;2023-04-07T03:29:00;2.55;;;0.77;;
49824;SDS011;35714;55.708;37.478;2023-04-07T03:31:28;3.63;;;1.05;;
49824;SDS011;35714;55.708;37.478;2023-04-07T03:33:54;4.00;;;0.80;;
49824;SDS011;35714;55.708;37.478;2023-04-07T03:36:21;4.07;;;1.17;;
49824;SDS011;35714;55.708;37.478;2023-04-07T03:38:47;3.13;;;1.17;;
49824;SDS011;35714;55.708;37.478;2023-04-07T03:41:15;3.63;;;1.30;;
49824;SDS011;35714;55.708;37.478;2023-04-07T03:43:40;3.88;;;1.10;;
49824;SDS011;35714;55.708;37.478;2023-04-07T03:46:06;3.22;;;1.13;;
49824;SDS011;35714;55.708;37.478;2023-04-07T03:48:33;3.60;;;1.10;;
49824;SDS011;35714;55.708;37.478;2023-04-07T03:51:06;4.55;;;1.42;;
49824;SDS011;35714;55.708;37.478;2023-04-07T03:53:33;5.57;;;1.40;;
49824;SDS011;35714;55.708;37.478;2023-04-07T03:56:05;3.28;;;0.90;;
49824;SDS011;35714;55.708;37.478;2023-04-07T03:58:43;4.38;;;1.20;;
49824;SDS011;35714;55.708;37.478;2023-04-07T04:01:15;4.45;;;1.27;;
49824;SDS011;35714;55.708;37.478;2023-04-07T04:03:43;7.65;;;1.08;;
49824;SDS011;35714;55.708;37.478;2023-04-07T04:06:29;3.05;;;0.93;;
49824;SDS011;35714;55.708;37.478;2023-04-07T04:09:16;5.45;;;1.15;;
49824;SDS011;35714;55.708;37.478;2023-04-07T04:11:45;3.85;;;1.05;;
49824;SDS011;35714;55.708;37.478;2023-04-07T04:14:11;3.25;;;1.42;;
49824;SDS011;35714;55.708;37.478;2023-04-07T04:16:38;7.95;;;1.60;;
49824;SDS011;35714;55.708;37.478;2023-04-07T04:19:13;4.03;;;1.00;;
49824;SDS011;35714;55.708;37.478;2023-04-07T04:21:38;4.28;;;1.50;;
49824;SDS011;35714;55.708;37.478;2023-04-07T04:24:05;4.93;;;1.00;;
49824;SDS011;35714;55.708;37.478;2023-04-07T04:26:31;4.50;;;1.55;;
49824;SDS011;35714;55.708;37.478;2023-04-07T04:29:03;4.22;;;1.20;;
49824;SDS011;35714;55.708;37.478;2023-04-07T04:31:29;4.10;;;1.17;;
49824;SDS011;35714;55.708;37.478;2023-04-07T04:33:55;3.92;;;1.00;;
49824;SDS011;35714;55.708;37.478;2023-04-07T04:36:22;3.88;;;1.27;;
49824;SDS011;35714;55.708;37.478;2023-04-07T04:38:53;4.75;;;1.52;;
49824;SDS011;35714;55.708;37.478;2023-04-07T04:41:21;3.42;;;1.00;;
49824;SDS011;35714;55.708;37.478;2023-04-07T04:43:49;3.20;;;1.30;;
49824;SDS011;35714;55.708;37.478;2023-04-07T04:46:19;4.90;;;1.42;;
49824;SDS011;35714;55.708;37.478;2023-04-07T04:48:47;3.70;;;1.20;;
49824;SDS011;35714;55.708;37.478;2023-04-07T04:51:15;6.60;;;1.30;;
49824;SDS011;35714;55.708;37.478;2023-04-07T04:53:46;4.25;;;1.70;;
49824;SDS011;35714;55.708;37.478;2023-04-07T04:56:12;4.53;;;1.23;;
49824;SDS011;35714;55.708;37.478;2023-04-07T04:58:40;6.13;;;1.23;;
49824;SDS011;35714;55.708;37.478;2023-04-07T05:01:11;4.35;;;1.38;;
49824;SDS011;35714;55.708;37.478;2023-04-07T05:03:46;6.47;;;1.33;;
49824;SDS011;35714;55.708;37.478;2023-04-07T05:06:17;4.60;;;1.30;;
49824;SDS011;35714;55.708;37.478;2023-04-07T05:08:44;5.10;;;1.10;;
49824;SDS011;35714;55.708;37.478;2023-04-07T05:11:12;5.05;;;1.40;;
49824;SDS011;35714;55.708;37.478;2023-04-07T05:13:39;6.38;;;2.40;;
49824;SDS011;35714;55.708;37.478;2023-04-07T05:16:05;7.38;;;1.40;;
49824;SDS011;35714;55.708;37.478;2023-04-07T05:18:33;9.15;;;1.80;;
49824;SDS011;35714;55.708;37.478;2023-04-07T05:20:59;10.00;;;1.65;;
49824;SDS011;35714;55.708;37.478;2023-04-07T05:23:26;9.60;;;2.10;;
49824;SDS011;35714;55.708;37.478;2023-04-07T05:25:52;4.57;;;1.70;;
49824;SDS011;35714;55.708;37.478;2023-04-07T05:28:18;8.82;;;1.50;;
49824;SDS011;35714;55.708;37.478;2023-04-07T05:30:44;6.97;;;1.90;;
49824;SDS011;35714;55.708;37.478;2023-04-07T05:33:10;4.65;;;1.20;;
49824;SDS011;35714;55.708;37.478;2023-04-07T05:35:48;4.28;;;1.30;;
49824;SDS011;35714;55.708;37.478;2023-04-07T05:38:14;6.35;;;2.40;;
49824;SDS011;35714;55.708;37.478;2023-04-07T05:40:41;6.90;;;2.00;;
49824;SDS011;35714;55.708;37.478;2023-04-07T05:43:10;5.32;;;1.73;;
49824;SDS011;35714;55.708;37.478;2023-04-07T05:45:37;8.05;;;2.42;;
49824;SDS011;35714;55.708;37.478;2023-04-07T05:48:03;7.50;;;1.90;;
49824;SDS011;35714;55.708;37.478;2023-04-07T05:50:37;5.03;;;1.67;;
49824;SDS011;35714;55.708;37.478;2023-04-07T05:53:07;7.32;;;1.48;;
49824;SDS011;35714;55.708;37.478;2023-04-07T05:55:32;6.50;;;2.47;;
49824;SDS011;35714;55.708;37.478;2023-04-07T05:57:59;8.27;;;1.80;;
49824;SDS011;35714;55.708;37.478;2023-04-07T06:00:28;7.72;;;1.55;;
49824;SDS011;35714;55.708;37.478;2023-04-07T06:03:14;10.02;;;2.17;;
49824;SDS011;35714;55.708;37.478;2023-04-07T06:05:56;6.15;;;2.17;;
49824;SDS011;35714;55.708;37.478;2023-04-07T06:08:23;9.10;;;1.60;;
49824;SDS011;35714;55.708;37.478;2023-04-07T06:10:48;6.53;;;1.40;;
49824;SDS011;35714;55.708;37.478;2023-04-07T06:13:14;5.32;;;1.83;;
49824;SDS011;35714;55.708;37.478;2023-04-07T06:15:41;9.43;;;1.80;;
49824;SDS011;35714;55.708;37.478;2023-04-07T06:18:08;7.25;;;1.92;;
49824;SDS011;35714;55.708;37.478;2023-04-07T06:20:33;8.70;;;1.58;;
49824;SDS011;35714;55.708;37.478;2023-04-07T06:23:00;5.38;;;2.53;;
49824;SDS011;35714;55.708;37.478;2023-04-07T06:25:26;5.15;;;1.70;;
49824;SDS011;35714;55.708;37.478;2023-04-07T06:27:52;6.18;;;2.03;;
49824;SDS011;35714;55.708;37.478;2023-04-07T06:30:19;5.72;;;1.55;;
49824;SDS011;35714;55.708;37.478;2023-04-07T06:32:45;7.93;;;1.95;;
49824;SDS011;35714;55.708;37.478;2023-04-07T06:35:11;5.93;;;2.15;;
49824;SDS011;35714;55.708;37.478;2023-04-07T06:37:36;8.65;;;1.80;;
49824;SDS011;35714;55.708;37.478;2023-04-07T06:40:03;5.65;;;1.60;;
49824;SDS011;35714;55.708;37.478;2023-04-07T06:42:30;4.88;;;1.67;;
49824;SDS011;35714;55.708;37.478;2023-04-07T06:45:05;7.85;;;2.10;;
49824;SDS011;35714;55.708;37.478;2023-04-07T06:47:31;10.98;;;1.85;;
49824;SDS011;35714;55.708;37.478;2023-04-07T06:49:57;7.03;;;2.30;;
49824;SDS011;35714;55.708;37.478;2023-04-07T06:52:22;9.55;;;2.33;;
49824;SDS011;35714;55.708;37.478;2023-04-07T06:54:48;8.85;;;2.25;;
49824;SDS011;35714;55.708;37.478;2023-04-07T06:57:14;10.70;;;4.07;;
49824;SDS011;35714;55.708;37.478;2023-04-07T06:59:39;8.27;;;2.35;;
49824;SDS011;35714;55.708;37.478;2023-04-07T07:02:05;5.78;;;2.00;;
49824;SDS011;35714;55.708;37.478;2023-04-07T07:04:32;7.40;;;2.50;;
49824;SDS011;35714;55.708;37.478;2023-04-07T07:06:59;10.70;;;2.65;;
49824;SDS011;35714;55.708;37.478;2023-04-07T07:09:24;7.57;;;2.15;;
49824;SDS011;35714;55.708;37.478;2023-04-07T07:11:51;8.82;;;2.28;;
49824;SDS011;35714;55.708;37.478;2023-04-07T07:14:17;11.55;;;2.00;;
49824;SDS011;35714;55.708;37.478;2023-04-07T07:16:43;5.35;;;2.00;;
49824;SDS011;35714;55.708;37.478;2023-04-07T07:19:08;10.52;;;2.42;;
49824;SDS011;35714;55.708;37.478;2023-04-07T07:21:34;5.80;;;2.20;;
49824;SDS011;35714;55.708;37.478;2023-04-07T07:24:02;9.95;;;3.13;;
49824;SDS011;35714;55.708;37.478;2023-04-07T07:26:27;5.93;;;2.25;;
49824;SDS011;35714;55.708;37.478;2023-04-07T07:28:53;14.07;;;6.97;;
49824;SDS011;35714;55.708;37.478;2023-04-07T07:31:19;11.27;;;3.28;;
49824;SDS011;35714;55.708;37.478;2023-04-07T07:33:44;9.30;;;2.97;;
49824;SDS011;35714;55.708;37.478;2023-04-07T07:36:12;13.05;;;2.60;;
49824;SDS011;35714;55.708;37.478;2023-04-07T07:38:38;10.13;;;2.35;;
49824;SDS011;35714;55.708;37.478;2023-04-07T07:41:05;10.13;;;2.33;;
49824;SDS011;35714;55.708;37.478;2023-04-07T07:43:31;7.05;;;2.15;;
49824;SDS011;35714;55.708;37.478;2023-04-07T07:45:56;8.95;;;1.90;;
49824;SDS011;35714;55.708;37.478;2023-04-07T07:48:22;5.95;;;1.83;;
49824;SDS011;35714;55.708;37.478;2023-04-07T07:50:48;5.82;;;2.17;;
49824;SDS011;35714;55.708;37.478;2023-04-07T07:53:14;8.45;;;2.30;;
49824;SDS011;35714;55.708;37.478;2023-04-07T07:55:40;9.35;;;2.28;;
49824;SDS011;35714;55.708;37.478;2023-04-07T07:58:06;6.65;;;1.98;;
49824;SDS011;35714;55.708;37.478;2023-04-07T08:00:31;7.25;;;1.92;;
49824;SDS011;35714;55.708;37.478;2023-04-07T08:02:57;9.23;;;2.35;;
49824;SDS011;35714;55.708;37.478;2023-04-07T08:05:22;9.30;;;2.58;;
49824;SDS011;35714;55.708;37.478;2023-04-07T08:07:48;8.68;;;1.73;;
49824;SDS011;35714;55.708;37.478;2023-04-07T08:10:14;7.22;;;1.40;;
49824;SDS011;35714;55.708;37.478;2023-04-07T08:12:39;6.90;;;1.67;;
49824;SDS011;35714;55.708;37.478;2023-04-07T08:15:05;5.63;;;1.45;;
49824;SDS011;35714;55.708;37.478;2023-04-07T08:17:34;6.53;;;1.70;;
49824;SDS011;35714;55.708;37.478;2023-04-07T08:20:00;7.03;;;1.85;;
49824;SDS011;35714;55.708;37.478;2023-04-07T08:22:26;4.80;;;1.23;;
49824;SDS011;35714;55.708;37.478;2023-04-07T08:24:51;6.03;;;1.60;;
49824;SDS011;35714;55.708;37.478;2023-04-07T08:27:17;7.70;;;1.77;;
49824;SDS011;35714;55.708;37.478;2023-04-07T08:29:42;6.57;;;1.85;;
49824;SDS011;35714;55.708;37.478;2023-04-07T08:32:08;9.20;;;1.55;;
49824;SDS011;35714;55.708;37.478;2023-04-07T08:34:34;14.57;;;1.83;;
49824;SDS011;35714;55.708;37.478;2023-04-07T08:36:59;5.82;;;1.75;;
49824;SDS011;35714;55.708;37.478;2023-04-07T08:39:25;5.70;;;1.08;;
49824;SDS011;35714;55.708;37.478;2023-04-07T08:41:52;9.57;;;1.65;;
49824;SDS011;35714;55.708;37.478;2023-04-07T08:44:19;5.70;;;1.48;;
49824;SDS011;35714;55.708;37.478;2023-04-07T08:46:47;5.78;;;2.47;;
49824;SDS011;35714;55.708;37.478;2023-04-07T08:49:14;5.05;;;1.60;;
49824;SDS011;35714;55.708;37.478;2023-04-07T08:51:46;5.03;;;1.63;;
49824;SDS011;35714;55.708;37.478;2023-04-07T08:54:13;13.10;;;1.58;;
49824;SDS011;35714;55.708;37.478;2023-04-07T08:56:41;6.85;;;1.42;;
49824;SDS011;35714;55.708;37.478;2023-04-07T08:59:08;4.78;;;1.55;;
49824;SDS011;35714;55.708;37.478;2023-04-07T09:01:36;5.90;;;1.40;;
49824;SDS011;35714;55.708;37.478;2023-04-07T09:04:03;6.78;;;1.52;;
49824;SDS011;35714;55.708;37.478;2023-04-07T09:06:29;6.28;;;1.50;;
49824;SDS011;35714;55.708;37.478;2023-04-07T09:08:56;6.25;;;1.27;;
49824;SDS011;35714;55.708;37.478;2023-04-07T09:11:22;6.68;;;1.38;;
49824;SDS011;35714;55.708;37.478;2023-04-07T09:13:49;4.43;;;1.33;;
49824;SDS011;35714;55.708;37.478;2023-04-07T09:16:15;7.78;;;1.23;;
49824;SDS011;35714;55.708;37.478;2023-04-07T09:18:41;4.05;;;1.23;;
49824;SDS011;35714;55.708;37.478;2023-04-07T09:21:07;9.07;;;1.58;;
49824;SDS011;35714;55.708;37.478;2023-04-07T09:23:36;4.18;;;1.40;;
49824;SDS011;35714;55.708;37.478;2023-04-07T09:28:53;9.25;;;3.13;;
49824;SDS011;35714;55.708;37.478;2023-04-07T09:31:23;6.32;;;2.15;;
49824;SDS011;35714;55.708;37.478;2023-04-07T09:34:24;5.20;;;1.58;;
49824;SDS011;35714;55.708;37.478;2023-04-07T09:36:52;3.67;;;1.55;;
49824;SDS011;35714;55.708;37.478;2023-04-07T09:39:18;4.63;;;1.50;;
49824;SDS011;35714;55.708;37.478;2023-04-07T09:41:44;11.65;;;1.70;;
49824;SDS011;35714;55.708;37.478;2023-04-07T09:44:09;7.68;;;1.60;;
49824;SDS011;35714;55.708;37.478;2023-04-07T09:46:47;7.20;;;1.30;;
49824;SDS011;35714;55.708;37.478;2023-04-07T09:49:26;4.65;;;1.13;;
49824;SDS011;35714;55.708;37.478;2023-04-07T09:51:58;6.00;;;1.77;;
49824;SDS011;35714;55.708;37.478;2023-04-07T09:57:02;5.10;;;1.25;;
49824;SDS011;35714;55.708;37.478;2023-04-07T09:59:29;6.65;;;1.63;;
49824;SDS011;35714;55.708;37.478;2023-04-07T10:01:56;5.93;;;2.05;;
49824;SDS011;35714;55.708;37.478;2023-04-07T10:04:25;4.38;;;1.35;;
49824;SDS011;35714;55.708;37.478;2023-04-07T10:06:52;5.55;;;1.52;;
49824;SDS011;35714;55.708;37.478;2023-04-07T10:09:19;3.95;;;1.08;;
49824;SDS011;35714;55.708;37.478;2023-04-07T10:11:46;9.50;;;1.33;;
49824;SDS011;35714;55.708;37.478;2023-04-07T10:14:13;4.93;;;1.13;;
49824;SDS011;35714;55.708;37.478;2023-04-07T10:16:40;4.72;;;1.15;;
49824;SDS011;35714;55.708;37.478;2023-04-07T10:19:06;5.40;;;1.17;;
49824;SDS011;35714;55.708;37.478;2023-04-07T10:21:37;4.00;;;1.30;;
49824;SDS011;35714;55.708;37.478;2023-04-07T10:26:40;7.28;;;1.48;;
49824;SDS011;35714;55.708;37.478;2023-04-07T10:29:07;7.85;;;2.28;;
49824;SDS011;35714;55.708;37.478;2023-04-07T10:31:37;6.55;;;1.65;;
49824;SDS011;35714;55.708;37.478;2023-04-07T10:34:03;4.60;;;1.30;;
49824;SDS011;35714;55.708;37.478;2023-04-07T10:36:29;7.20;;;1.75;;
49824;SDS011;35714;55.708;37.478;2023-04-07T10:41:34;6.93;;;1.35;;
49824;SDS011;35714;55.708;37.478;2023-04-07T10:44:03;7.65;;;2.30;;
49824;SDS011;35714;55.708;37.478;2023-04-07T10:49:16;6.15;;;1.38;;
49824;SDS011;35714;55.708;37.478;2023-04-07T10:51:41;4.00;;;1.10;;
49824;SDS011;35714;55.708;37.478;2023-04-07T10:54:20;6.20;;;1.70;;
49824;SDS011;35714;55.708;37.478;2023-04-07T10:59:30;3.72;;;1.17;;
49824;SDS011;35714;55.708;37.478;2023-04-07T11:04:38;2.30;;;0.80;;
49824;SDS011;35714;55.708;37.478;2023-04-07T11:07:05;4.63;;;1.00;;
49824;SDS011;35714;55.708;37.478;2023-04-07T11:09:31;9.60;;;1.77;;
49824;SDS011;35714;55.708;37.478;2023-04-07T11:11:57;6.97;;;1.25;;
49824;SDS011;35714;55.708;37.478;2023-04-07T11:14:29;5.78;;;1.38;;
49824;SDS011;35714;55.708;37.478;2023-04-07T11:16:56;4.38;;;1.40;;
49824;SDS011;35714;55.708;37.478;2023-04-07T11:19:22;3.58;;;1.30;;
49824;SDS011;35714;55.708;37.478;2023-04-07T11:21:48;6.10;;;2.55;;
49824;SDS011;35714;55.708;37.478;2023-04-07T11:26:58;5.03;;;0.90;;
49824;SDS011;35714;55.708;37.478;2023-04-07T11:29:27;3.15;;;1.13;;
49824;SDS011;35714;55.708;37.478;2023-04-07T11:31:54;4.80;;;1.30;;
49824;SDS011;35714;55.708;37.478;2023-04-07T11:34:28;6.25;;;1.48;;
49824;SDS011;35714;55.708;37.478;2023-04-07T11:36:58;4.88;;;1.10;;
49824;SDS011;35714;55.708;37.478;2023-04-07T11:39:43;2.92;;;0.80;;
49824;SDS011;35714;55.708;37.478;2023-04-07T11:42:12;7.32;;;1.10;;
49824;SDS011;35714;55.708;37.478;2023-04-07T11:44:46;6.53;;;1.23;;
49824;SDS011;35714;55.708;37.478;2023-04-07T11:47:12;5.00;;;1.15;;
49824;SDS011;35714;55.708;37.478;2023-04-07T11:49:44;5.25;;;1.40;;
49824;SDS011;35714;55.708;37.478;2023-04-07T11:52:13;4.22;;;1.08;;
49824;SDS011;35714;55.708;37.478;2023-04-07T11:54:45;3.35;;;1.05;;
49824;SDS011;35714;55.708;37.478;2023-04-07T11:57:11;4.10;;;1.10;;
49824;SDS011;35714;55.708;37.478;2023-04-07T11:59:38;4.93;;;0.90;;
49824;SDS011;35714;55.708;37.478;2023-04-07T12:02:05;4.80;;;1.40;;
49824;SDS011;35714;55.708;37.478;2023-04-07T12:04:31;2.92;;;1.30;;
49824;SDS011;35714;55.708;37.478;2023-04-07T12:07:05;4.50;;;1.05;;
49824;SDS011;35714;55.708;37.478;2023-04-07T12:09:33;4.75;;;1.02;;
49824;SDS011;35714;55.708;37.478;2023-04-07T12:12:02;2.35;;;0.93;;
49824;SDS011;35714;55.708;37.478;2023-04-07T12:14:34;3.95;;;0.98;;
49824;SDS011;35714;55.708;37.478;2023-04-07T12:17:00;6.35;;;1.38;;
49824;SDS011;35714;55.708;37.478;2023-04-07T12:19:28;2.10;;;0.82;;
49824;SDS011;35714;55.708;37.478;2023-04-07T12:21:56;4.53;;;1.05;;
49824;SDS011;35714;55.708;37.478;2023-04-07T12:24:22;3.95;;;1.08;;
49824;SDS011;35714;55.708;37.478;2023-04-07T12:26:48;5.72;;;1.00;;
49824;SDS011;35714;55.708;37.478;2023-04-07T12:29:15;10.65;;;1.05;;
49824;SDS011;35714;55.708;37.478;2023-04-07T12:31:41;2.78;;;0.90;;
49824;SDS011;35714;55.708;37.478;2023-04-07T12:34:07;4.70;;;1.10;;
49824;SDS011;35714;55.708;37.478;2023-04-07T12:36:33;5.60;;;1.10;;
49824;SDS011;35714;55.708;37.478;2023-04-07T12:38:59;9.55;;;1.17;;
49824;SDS011;35714;55.708;37.478;2023-04-07T12:41:25;4.20;;;0.98;;
49824;SDS011;35714;55.708;37.478;2023-04-07T12:43:51;3.20;;;0.98;;
49824;SDS011;35714;55.708;37.478;2023-04-07T12:46:17;4.78;;;1.27;;
49824;SDS011;35714;55.708;37.478;2023-04-07T12:48:43;8.38;;;1.25;;
49824;SDS011;35714;55.708;37.478;2023-04-07T12:51:09;5.68;;;1.20;;
49824;SDS011;35714;55.708;37.478;2023-04-07T12:53:34;5.57;;;1.23;;
49824;SDS011;35714;55.708;37.478;2023-04-07T12:56:00;6.35;;;1.42;;
49824;SDS011;35714;55.708;37.478;2023-04-07T12:58:26;11.32;;;1.60;;
49824;SDS011;35714;55.708;37.478;2023-04-07T13:00:52;8.27;;;2.03;;
49824;SDS011;35714;55.708;37.478;2023-04-07T13:03:18;6.28;;;1.50;;
49824;SDS011;35714;55.708;37.478;2023-04-07T13:05:43;11.07;;;1.13;;
49824;SDS011;35714;55.708;37.478;2023-04-07T13:08:09;5.22;;;1.10;;
49824;SDS011;35714;55.708;37.478;2023-04-07T13:10:35;4.50;;;1.13;;
49824;SDS011;35714;55.708;37.478;2023-04-07T13:13:00;8.98;;;1.55;;
49824;SDS011;35714;55.708;37.478;2023-04-07T13:15:26;4.70;;;1.30;;
49824;SDS011;35714;55.708;37.478;2023-04-07T13:17:53;4.53;;;1.20;;
49824;SDS011;35714;55.708;37.478;2023-04-07T13:20:19;4.05;;;1.35;;
49824;SDS011;35714;55.708;37.478;2023-04-07T13:22:45;10.35;;;1.77;;
49824;SDS011;35714;55.708;37.478;2023-04-07T13:25:11;4.35;;;1.25;;
49824;SDS011;35714;55.708;37.478;2023-04-07T13:27:38;3.28;;;0.90;;
49824;SDS011;35714;55.708;37.478;2023-04-07T13:30:04;5.57;;;1.20;;
49824;SDS011;35714;55.708;37.478;2023-04-07T13:32:30;5.18;;;1.15;;
49824;SDS011;35714;55.708;37.478;2023-04-07T13:34:55;3.22;;;1.23;;
49824;SDS011;35714;55.708;37.478;2023-04-07T13:37:21;4.80;;;1.05;;
49824;SDS011;35714;55.708;37.478;2023-04-07T13:39:47;3.55;;;1.13;;
49824;SDS011;35714;55.708;37.478;2023-04-07T13:42:13;7.32;;;1.10;;
49824;SDS011;35714;55.708;37.478;2023-04-07T13:44:41;4.90;;;1.35;;
49824;SDS011;35714;55.708;37.478;2023-04-07T13:47:09;8.80;;;1.48;;
49824;SDS011;35714;55.708;37.478;2023-04-07T13:49:35;5.10;;;1.50;;
49824;SDS011;35714;55.708;37.478;2023-04-07T13:52:01;8.48;;;1.40;;
49824;SDS011;35714;55.708;37.478;2023-04-07T13:54:26;9.30;;;1.17;;
49824;SDS011;35714;55.708;37.478;2023-04-07T13:56:52;5.82;;;1.50;;
49824;SDS011;35714;55.708;37.478;2023-04-07T13:59:18;9.15;;;1.55;;
49824;SDS011;35714;55.708;37.478;2023-04-07T14:01:43;4.35;;;1.42;;
49824;SDS011;35714;55.708;37.478;2023-04-07T14:04:09;6.53;;;1.33;;
49824;SDS011;35714;55.708;37.478;2023-04-07T14:06:34;4.40;;;1.40;;
49824;SDS011;35714;55.708;37.478;2023-04-07T14:09:01;4.78;;;1.23;;
49824;SDS011;35714;55.708;37.478;2023-04-07T14:11:27;6.45;;;2.08;;
49824;SDS011;35714;55.708;37.478;2023-04-07T14:13:53;6.55;;;2.08;;
49824;SDS011;35714;55.708;37.478;2023-04-07T14:16:21;5.05;;;1.70;;
49824;SDS011;35714;55.708;37.478;2023-04-07T14:18:46;5.20;;;1.42;;
49824;SDS011;35714;55.708;37.478;2023-04-07T14:21:13;3.53;;;1.20;;
49824;SDS011;35714;55.708;37.478;2023-04-07T14:23:39;7.97;;;2.50;;
49824;SDS011;35714;55.708;37.478;2023-04-07T14:26:10;4.40;;;2.05;;
49824;SDS011;35714;55.708;37.478;2023-04-07T14:28:36;4.50;;;1.75;;
49824;SDS011;35714;55.708;37.478;2023-04-07T14:31:02;4.40;;;1.60;;
49824;SDS011;35714;55.708;37.478;2023-04-07T14:33:28;9.93;;;1.77;;
49824;SDS011;35714;55.708;37.478;2023-04-07T14:35:54;4.55;;;1.70;;
49824;SDS011;35714;55.708;37.478;2023-04-07T14:38:19;8.00;;;1.75;;
49824;SDS011;35714;55.708;37.478;2023-04-07T14:40:52;17.05;;;2.90;;
49824;SDS011;35714;55.708;37.478;2023-04-07T14:43:18;5.50;;;1.50;;
49824;SDS011;35714;55.708;37.478;2023-04-07T14:45:44;7.20;;;2.20;;
49824;SDS011;35714;55.708;37.478;2023-04-07T14:48:09;7.13;;;1.98;;
49824;SDS011;35714;55.708;37.478;2023-04-07T14:50:35;10.25;;;1.70;;
49824;SDS011;35714;55.708;37.478;2023-04-07T14:53:01;9.32;;;2.10;;
49824;SDS011;35714;55.708;37.478;2023-04-07T14:55:27;5.25;;;2.33;;
49824;SDS011;35714;55.708;37.478;2023-04-07T14:57:55;4.68;;;1.60;;
49824;SDS011;35714;55.708;37.478;2023-04-07T15:00:20;7.32;;;2.30;;
49824;SDS011;35714;55.708;37.478;2023-04-07T15:02:46;6.25;;;1.63;;
49824;SDS011;35714;55.708;37.478;2023-04-07T15:05:12;6.15;;;1.80;;
49824;SDS011;35714;55.708;37.478;2023-04-07T15:07:38;6.78;;;2.42;;